sensor_id;sensor_type;location;lat;lon;timestamp;pressure;altitude;pressure_sealevel;temperature;humidity
19748;BME280;10032;51.386;12.516;2023-05-17T04:20:39;100732.38;;;7.49;100.00
19748;BME280;10032;51.386;12.516;2023-05-17T04:23:05;100725.91;;;7.57;100.00
19748;BME280;10032;51.386;12.516;2023-05-17T04:25:30;100734.34;;;7.67;100.00
19748;BME280;10032;51.386;12.516;2023-05-17T04:27:55;100733.00;;;7.82;100.00
19748;BME280;10032;51.386;12.516;2023-05-17T04:30:24;100740.41;;;7.93;100.00
19748;BME280;10032;51.386;12.516;2023-05-17T04:32:52;100738.69;;;8.05;100.00
19748;BME280;10032;51.386;12.516;2023-05-17T04:35:18;100741.47;;;8.23;100.00
19748;BME280;10032;51.386;12.516;2023-05-17T04:37:43;100744.16;;;8.48;100.00
19748;BME280;10032;51.386;12.516;2023-05-17T04:40:09;100739.41;;;8.68;100.00
19748;BME280;10032;51.386;12.516;2023-05-17T04:42:34;100743.69;;;8.93;100.00
19748;BME280;10032;51.386;12.516;2023-05-17T04:45:01;100737.63;;;9.16;100.00
19748;BME280;10032;51.386;12.516;2023-05-17T04:47:26;100745.00;;;9.56;100.00
19748;BME280;10032;51.386;12.516;2023-05-17T04:49:52;100743.72;;;9.88;100.00
19748;BME280;10032;51.386;12.516;2023-05-17T04:52:17;100748.78;;;10.14;100.00
19748;BME280;10032;51.386;12.516;2023-05-17T04:54:42;100747.72;;;10.04;100.00
19748;BME280;10032;51.386;12.516;2023-05-17T04:57:08;100743.44;;;10.08;100.00
19748;BME280;10032;51.386;12.516;2023-05-17T04:59:33;100749.88;;;9.95;100.00
19748;BME280;10032;51.386;12.516;2023-05-17T05:01:59;100747.03;;;9.90;100.00
19748;BME280;10032;51.386;12.516;2023-05-17T05:04:24;100749.53;;;10.03;100.00
19748;BME280;10032;51.386;12.516;2023-05-17T05:06:50;100748.59;;;10.27;100.00
19748;BME280;10032;51.386;12.516;2023-05-17T05:09:16;100753.31;;;10.43;100.00
19748;BME280;10032;51.386;12.516;2023-05-17T05:11:41;100747.44;;;10.69;100.00
19748;BME280;10032;51.386;12.516;2023-05-17T05:14:06;100748.00;;;11.06;100.00
19748;BME280;10032;51.386;12.516;2023-05-17T05:16:32;100753.53;;;11.22;100.00
19748;BME280;10032;51.386;12.516;2023-05-17T05:18:57;100749.09;;;11.44;100.00
19748;BME280;10032;51.386;12.516;2023-05-17T05:21:23;100759.00;;;11.62;100.00
19748;BME280;10032;51.386;12.516;2023-05-17T05:23:48;100753.06;;;11.65;100.00
19748;BME280;10032;51.386;12.516;2023-05-17T05:26:13;100756.72;;;11.70;100.00
19748;BME280;10032;51.386;12.516;2023-05-17T05:28:39;100769.94;;;11.95;100.00
19748;BME280;10032;51.386;12.516;2023-05-17T05:31:04;100763.97;;;12.09;100.00
19748;BME280;10032;51.386;12.516;2023-05-17T05:33:30;100766.56;;;12.32;100.00
19748;BME280;10032;51.386;12.516;2023-05-17T05:35:56;100774.78;;;12.54;100.00
19748;BME280;10032;51.386;12.516;2023-05-17T05:38:21;100780.06;;;12.60;100.00
19748;BME280;10032;51.386;12.516;2023-05-17T05:40:47;100779.31;;;12.32;100.00
19748;BME280;10032;51.386;12.516;2023-05-17T05:43:13;100783.63;;;12.00;100.00
19748;BME280;10032;51.386;12.516;2023-05-17T05:45:38;100786.00;;;11.96;100.00
19748;BME280;10032;51.386;12.516;2023-05-17T05:48:12;100786.63;;;12.31;100.00
19748;BME280;10032;51.386;12.516;2023-05-17T05:50:40;100796.88;;;12.57;100.00
19748;BME280;10032;51.386;12.516;2023-05-17T05:53:07;100798.09;;;12.50;100.00
19748;BME280;10032;51.386;12.516;2023-05-17T05:55:33;100804.75;;;12.42;100.00
19748;BME280;10032;51.386;12.516;2023-05-17T05:57:58;100804.28;;;12.45;100.00
19748;BME280;10032;51.386;12.516;2023-05-17T06:00:24;100806.72;;;12.30;100.00
19748;BME280;10032;51.386;12.516;2023-05-17T06:02:49;100800.88;;;12.22;100.00
19748;BME280;10032;51.386;12.516;2023-05-17T06:05:15;100799.66;;;12.29;100.00
19748;BME280;10032;51.386;12.516;2023-05-17T06:07:40;100796.69;;;12.31;100.00
19748;BME280;10032;51.386;12.516;2023-05-17T06:10:06;100799.19;;;12.65;100.00
19748;BME280;10032;51.386;12.516;2023-05-17T06:12:32;100804.75;;;12.92;100.00
19748;BME280;10032;51.386;12.516;2023-05-17T06:14:57;100803.16;;;13.07;100.00
19748;BME280;10032;51.386;12.516;2023-05-17T06:17:22;100807.41;;;13.20;100.00
19748;BME280;10032;51.386;12.516;2023-05-17T06:19:48;100795.31;;;13.32;100.00
19748;BME280;10032;51.386;12.516;2023-05-17T06:22:14;100806.13;;;13.65;100.00
19748;BME280;10032;51.386;12.516;2023-05-17T06:24:40;100811.16;;;13.78;100.00
19748;BME280;10032;51.386;12.516;2023-05-17T06:27:05;100809.41;;;13.67;100.00
19748;BME280;10032;51.386;12.516;2023-05-17T06:29:31;100803.13;;;13.88;100.00
19748;BME280;10032;51.386;12.516;2023-05-17T06:31:57;100806.19;;;13.70;100.00
19748;BME280;10032;51.386;12.516;2023-05-17T06:34:24;100814.72;;;13.57;100.00
19748;BME280;10032;51.386;12.516;2023-05-17T06:36:49;100812.16;;;13.29;100.00
19748;BME280;10032;51.386;12.516;2023-05-17T06:39:14;100817.03;;;13.27;100.00
19748;BME280;10032;51.386;12.516;2023-05-17T06:41:40;100821.59;;;13.22;100.00
19748;BME280;10032;51.386;12.516;2023-05-17T06:44:06;100819.09;;;13.37;100.00
19748;BME280;10032;51.386;12.516;2023-05-17T06:46:32;100813.81;;;13.30;100.00
19748;BME280;10032;51.386;12.516;2023-05-17T06:48:57;100813.72;;;13.42;100.00
19748;BME280;10032;51.386;12.516;2023-05-17T06:51:22;100819.34;;;13.78;100.00
19748;BME280;10032;51.386;12.516;2023-05-17T06:53:48;100807.28;;;14.17;100.00
19748;BME280;10032;51.386;12.516;2023-05-17T06:56:14;100814.25;;;14.08;100.00
19748;BME280;10032;51.386;12.516;2023-05-17T06:58:40;100818.44;;;14.16;100.00
19748;BME280;10032;51.386;12.516;2023-05-17T07:01:05;100825.78;;;14.37;100.00
19748;BME280;10032;51.386;12.516;2023-05-17T07:03:31;100825.53;;;14.43;100.00
19748;BME280;10032;51.386;12.516;2023-05-17T07:05:56;100828.63;;;14.83;100.00
19748;BME280;10032;51.386;12.516;2023-05-17T07:08:22;100820.53;;;14.62;100.00
19748;BME280;10032;51.386;12.516;2023-05-17T07:10:50;100826.63;;;14.42;100.00
19748;BME280;10032;51.386;12.516;2023-05-17T07:13:16;100824.88;;;14.31;100.00
19748;BME280;10032;51.386;12.516;2023-05-17T07:15:42;100838.00;;;14.13;100.00
19748;BME280;10032;51.386;12.516;2023-05-17T07:18:07;100845.50;;;13.79;97.66
19748;BME280;10032;51.386;12.516;2023-05-17T07:20:33;100848.31;;;13.63;100.00
19748;BME280;10032;51.386;12.516;2023-05-17T07:22:58;100850.19;;;14.05;100.00
19748;BME280;10032;51.386;12.516;2023-05-17T07:25:23;100855.63;;;14.53;100.00
19748;BME280;10032;51.386;12.516;2023-05-17T07:27:49;100850.34;;;14.42;96.28
19748;BME280;10032;51.386;12.516;2023-05-17T07:30:15;100851.31;;;14.09;96.13
19748;BME280;10032;51.386;12.516;2023-05-17T07:32:40;100861.31;;;14.04;95.54
19748;BME280;10032;51.386;12.516;2023-05-17T07:35:06;100854.38;;;13.91;93.49
19748;BME280;10032;51.386;12.516;2023-05-17T07:37:31;100846.34;;;14.49;95.82
19748;BME280;10032;51.386;12.516;2023-05-17T07:39:57;100845.25;;;15.13;93.82
19748;BME280;10032;51.386;12.516;2023-05-17T07:42:33;100835.25;;;14.92;88.52
19748;BME280;10032;51.386;12.516;2023-05-17T07:44:58;100852.69;;;14.60;88.68
19748;BME280;10032;51.386;12.516;2023-05-17T07:47:23;100851.16;;;14.42;89.43
19748;BME280;10032;51.386;12.516;2023-05-17T07:49:49;100846.63;;;14.26;89.44
19748;BME280;10032;51.386;12.516;2023-05-17T07:52:14;100846.53;;;14.43;91.70
19748;BME280;10032;51.386;12.516;2023-05-17T07:54:40;100841.47;;;14.88;90.64
19748;BME280;10032;51.386;12.516;2023-05-17T07:57:05;100854.34;;;14.61;84.65
19748;BME280;10032;51.386;12.516;2023-05-17T07:59:31;100856.56;;;14.37;85.90
19748;BME280;10032;51.386;12.516;2023-05-17T08:01:56;100859.28;;;14.37;87.35
19748;BME280;10032;51.386;12.516;2023-05-17T08:04:22;100849.50;;;14.99;87.49
19748;BME280;10032;51.386;12.516;2023-05-17T08:06:48;100846.56;;;15.42;86.70
19748;BME280;10032;51.386;12.516;2023-05-17T08:09:14;100859.19;;;15.17;81.13
19748;BME280;10032;51.386;12.516;2023-05-17T08:11:41;100850.09;;;15.06;81.89
19748;BME280;10032;51.386;12.516;2023-05-17T08:14:14;100850.94;;;15.48;83.46
19748;BME280;10032;51.386;12.516;2023-05-17T08:16:44;100853.97;;;16.03;82.34
19748;BME280;10032;51.386;12.516;2023-05-17T08:19:11;100850.72;;;16.21;80.37
19748;BME280;10032;51.386;12.516;2023-05-17T08:21:40;100863.56;;;16.11;78.70
19748;BME280;10032;51.386;12.516;2023-05-17T08:24:06;100865.50;;;15.59;74.20
19748;BME280;10032;51.386;12.516;2023-05-17T08:26:32;100867.63;;;15.15;74.26
19748;BME280;10032;51.386;12.516;2023-05-17T08:28:57;100855.50;;;15.01;73.53
19748;BME280;10032;51.386;12.516;2023-05-17T08:31:23;100869.19;;;15.06;74.10
19748;BME280;10032;51.386;12.516;2023-05-17T08:33:48;100871.63;;;14.71;70.98
19748;BME280;10032;51.386;12.516;2023-05-17T08:36:14;100876.50;;;14.69;74.02
19748;BME280;10032;51.386;12.516;2023-05-17T08:38:40;100877.50;;;14.58;74.16
19748;BME280;10032;51.386;12.516;2023-05-17T08:41:08;100882.44;;;14.61;75.16
19748;BME280;10032;51.386;12.516;2023-05-17T08:43:33;100889.59;;;14.67;74.99
19748;BME280;10032;51.386;12.516;2023-05-17T08:45:59;100885.22;;;14.66;75.75
19748;BME280;10032;51.386;12.516;2023-05-17T08:48:28;100892.38;;;14.72;76.46
19748;BME280;10032;51.386;12.516;2023-05-17T08:50:55;100888.81;;;14.72;75.82
19748;BME280;10032;51.386;12.516;2023-05-17T08:53:23;100891.78;;;14.65;76.53
19748;BME280;10032;51.386;12.516;2023-05-17T08:55:50;100892.31;;;14.67;74.83
19748;BME280;10032;51.386;12.516;2023-05-17T08:58:20;100881.63;;;14.61;74.50
19748;BME280;10032;51.386;12.516;2023-05-17T09:00:49;100879.56;;;15.04;75.26
19748;BME280;10032;51.386;12.516;2023-05-17T09:03:17;100882.66;;;15.49;73.02
19748;BME280;10032;51.386;12.516;2023-05-17T09:05:44;100883.84;;;15.27;72.00
19748;BME280;10032;51.386;12.516;2023-05-17T09:08:09;100882.38;;;15.14;71.19
19748;BME280;10032;51.386;12.516;2023-05-17T09:10:41;100885.44;;;14.86;70.64
19748;BME280;10032;51.386;12.516;2023-05-17T09:13:07;100889.16;;;14.75;71.66
19748;BME280;10032;51.386;12.516;2023-05-17T09:15:32;100894.81;;;14.69;70.53
19748;BME280;10032;51.386;12.516;2023-05-17T09:17:58;100889.00;;;14.92;71.81
19748;BME280;10032;51.386;12.516;2023-05-17T09:20:26;100884.28;;;15.14;71.33
19748;BME280;10032;51.386;12.516;2023-05-17T09:23:02;100878.63;;;15.25;70.46
19748;BME280;10032;51.386;12.516;2023-05-17T09:25:32;100881.56;;;15.50;67.77
19748;BME280;10032;51.386;12.516;2023-05-17T09:28:04;100878.28;;;15.53;67.67
19748;BME280;10032;51.386;12.516;2023-05-17T09:30:33;100882.63;;;15.44;67.49
19748;BME280;10032;51.386;12.516;2023-05-17T09:33:09;100872.94;;;15.73;68.37
19748;BME280;10032;51.386;12.516;2023-05-17T09:35:36;100879.06;;;15.95;68.01
19748;BME280;10032;51.386;12.516;2023-05-17T09:38:06;100882.38;;;15.97;66.21
19748;BME280;10032;51.386;12.516;2023-05-17T09:40:33;100887.28;;;16.00;65.05
19748;BME280;10032;51.386;12.516;2023-05-17T09:43:01;100893.03;;;16.04;63.43
19748;BME280;10032;51.386;12.516;2023-05-17T09:45:27;100900.97;;;16.05;63.19
19748;BME280;10032;51.386;12.516;2023-05-17T09:47:52;100889.50;;;16.03;63.57
19748;BME280;10032;51.386;12.516;2023-05-17T09:50:19;100889.81;;;16.17;63.74
19748;BME280;10032;51.386;12.516;2023-05-17T09:52:45;100893.69;;;16.26;62.41
19748;BME280;10032;51.386;12.516;2023-05-17T09:55:11;100891.06;;;16.66;62.55
19748;BME280;10032;51.386;12.516;2023-05-17T09:57:38;100898.22;;;16.82;62.76
19748;BME280;10032;51.386;12.516;2023-05-17T10:00:07;100896.28;;;16.62;60.75
19748;BME280;10032;51.386;12.516;2023-05-17T10:02:39;100901.09;;;16.30;59.35
19748;BME280;10032;51.386;12.516;2023-05-17T10:05:09;100896.22;;;15.81;58.99
19748;BME280;10032;51.386;12.516;2023-05-17T10:07:36;100900.88;;;15.85;59.43
19748;BME280;10032;51.386;12.516;2023-05-17T10:10:03;100902.81;;;16.46;59.10
19748;BME280;10032;51.386;12.516;2023-05-17T10:12:31;100902.31;;;16.74;57.46
19748;BME280;10032;51.386;12.516;2023-05-17T10:15:00;100900.34;;;16.45;57.02
19748;BME280;10032;51.386;12.516;2023-05-17T10:17:26;100905.22;;;16.38;57.44
19748;BME280;10032;51.386;12.516;2023-05-17T10:19:55;100908.28;;;16.46;57.76
19748;BME280;10032;51.386;12.516;2023-05-17T10:22:21;100900.50;;;16.18;55.48
19748;BME280;10032;51.386;12.516;2023-05-17T10:24:47;100901.34;;;16.29;57.19
19748;BME280;10032;51.386;12.516;2023-05-17T10:27:13;100903.44;;;16.83;57.57
19748;BME280;10032;51.386;12.516;2023-05-17T10:29:40;100903.44;;;17.43;56.81
19748;BME280;10032;51.386;12.516;2023-05-17T10:32:06;100912.22;;;17.50;54.91
19748;BME280;10032;51.386;12.516;2023-05-17T10:34:36;100909.91;;;17.97;54.91
19748;BME280;10032;51.386;12.516;2023-05-17T10:37:03;100915.97;;;17.84;53.65
19748;BME280;10032;51.386;12.516;2023-05-17T10:39:29;100909.47;;;17.25;54.12
19748;BME280;10032;51.386;12.516;2023-05-17T10:41:59;100920.97;;;17.27;54.30
19748;BME280;10032;51.386;12.516;2023-05-17T10:44:26;100931.69;;;17.44;54.39
19748;BME280;10032;51.386;12.516;2023-05-17T10:46:56;100934.09;;;16.95;52.04
19748;BME280;10032;51.386;12.516;2023-05-17T10:49:29;100938.47;;;16.76;51.97
19748;BME280;10032;51.386;12.516;2023-05-17T10:51:58;100930.81;;;16.93;52.22
19748;BME280;10032;51.386;12.516;2023-05-17T10:54:34;100934.66;;;17.17;51.91
19748;BME280;10032;51.386;12.516;2023-05-17T10:57:05;100934.13;;;17.15;50.64
19748;BME280;10032;51.386;12.516;2023-05-17T10:59:31;100929.75;;;17.24;50.72
19748;BME280;10032;51.386;12.516;2023-05-17T11:02:02;100928.56;;;16.75;50.21
19748;BME280;10032;51.386;12.516;2023-05-17T11:12:45;100923.66;;;17.92;50.85
19748;BME280;10032;51.386;12.516;2023-05-17T11:15:14;100918.44;;;17.86;49.75
19748;BME280;10032;51.386;12.516;2023-05-17T11:22:57;100919.59;;;17.70;48.27
19748;BME280;10032;51.386;12.516;2023-05-17T11:25:26;100908.28;;;17.86;49.81
19748;BME280;10032;51.386;12.516;2023-05-17T11:27:52;100913.22;;;17.89;49.14
19748;BME280;10032;51.386;12.516;2023-05-17T11:33:05;100914.31;;;17.88;49.54
19748;BME280;10032;51.386;12.516;2023-05-17T11:35:33;100910.63;;;18.33;49.29
19748;BME280;10032;51.386;12.516;2023-05-17T11:38:31;100908.28;;;18.60;47.72
19748;BME280;10032;51.386;12.516;2023-05-17T11:41:15;100902.41;;;18.76;47.02
19748;BME280;10032;51.386;12.516;2023-05-17T11:43:44;100896.19;;;18.61;47.38
19748;BME280;10032;51.386;12.516;2023-05-17T11:46:18;100895.66;;;17.95;46.90
19748;BME280;10032;51.386;12.516;2023-05-17T11:48:45;100918.19;;;17.82;47.14
19748;BME280;10032;51.386;12.516;2023-05-17T11:51:13;100918.19;;;17.87;47.15
19748;BME280;10032;51.386;12.516;2023-05-17T11:53:40;100906.38;;;17.82;46.96
19748;BME280;10032;51.386;12.516;2023-05-17T11:56:06;100907.47;;;17.86;47.15
19748;BME280;10032;51.386;12.516;2023-05-17T11:58:35;100920.34;;;17.90;47.23
19748;BME280;10032;51.386;12.516;2023-05-17T12:01:01;100908.78;;;18.03;47.66
19748;BME280;10032;51.386;12.516;2023-05-17T12:03:29;100902.94;;;18.78;47.22
19748;BME280;10032;51.386;12.516;2023-05-17T12:08:32;100900.53;;;19.05;46.49
19748;BME280;10032;51.386;12.516;2023-05-17T12:10:58;100909.47;;;18.87;45.58
19748;BME280;10032;51.386;12.516;2023-05-17T12:13:27;100903.84;;;19.02;45.89
19748;BME280;10032;51.386;12.516;2023-05-17T12:16:06;100915.59;;;18.74;45.67
19748;BME280;10032;51.386;12.516;2023-05-17T12:18:41;100907.28;;;18.36;45.44
19748;BME280;10032;51.386;12.516;2023-05-17T12:21:08;100907.66;;;18.14;44.89
19748;BME280;10032;51.386;12.516;2023-05-17T12:23:36;100895.88;;;18.09;45.97
19748;BME280;10032;51.386;12.516;2023-05-17T12:26:04;100892.50;;;18.37;46.05
19748;BME280;10032;51.386;12.516;2023-05-17T12:28:31;100897.50;;;18.68;45.53
19748;BME280;10032;51.386;12.516;2023-05-17T12:30:57;100901.38;;;18.67;45.34
19748;BME280;10032;51.386;12.516;2023-05-17T12:33:24;100889.69;;;19.24;45.83
19748;BME280;10032;51.386;12.516;2023-05-17T12:35:50;100894.69;;;19.50;45.75
19748;BME280;10032;51.386;12.516;2023-05-17T12:38:17;100893.66;;;19.70;44.86
19748;BME280;10032;51.386;12.516;2023-05-17T12:40:43;100890.28;;;19.49;43.99
19748;BME280;10032;51.386;12.516;2023-05-17T12:43:08;100899.38;;;19.73;44.34
19748;BME280;10032;51.386;12.516;2023-05-17T12:45:34;100892.88;;;19.64;43.70
19748;BME280;10032;51.386;12.516;2023-05-17T12:48:00;100899.75;;;19.33;43.18
19748;BME280;10032;51.386;12.516;2023-05-17T12:50:29;100884.28;;;19.42;43.45
19748;BME280;10032;51.386;12.516;2023-05-17T12:52:54;100894.44;;;19.13;42.97
19748;BME280;10032;51.386;12.516;2023-05-17T12:55:20;100894.31;;;18.95;43.12
19748;BME280;10032;51.386;12.516;2023-05-17T12:57:53;100894.22;;;18.71;43.95
19748;BME280;10032;51.386;12.516;2023-05-17T13:00:19;100891.91;;;18.83;42.93
19748;BME280;10032;51.386;12.516;2023-05-17T13:02:46;100887.91;;;19.04;43.27
19748;BME280;10032;51.386;12.516;2023-05-17T13:05:18;100886.44;;;19.22;43.07
19748;BME280;10032;51.386;12.516;2023-05-17T13:07:45;100883.94;;;19.20;43.33
19748;BME280;10032;51.386;12.516;2023-05-17T13:10:24;100886.16;;;19.47;43.18
19748;BME280;10032;51.386;12.516;2023-05-17T13:12:59;100881.41;;;19.29;42.22
19748;BME280;10032;51.386;12.516;2023-05-17T13:15:32;100890.78;;;19.56;42.21
19748;BME280;10032;51.386;12.516;2023-05-17T13:17:58;100887.56;;;19.44;42.39
19748;BME280;10032;51.386;12.516;2023-05-17T13:20:25;100885.38;;;19.46;42.97
19748;BME280;10032;51.386;12.516;2023-05-17T13:22:51;100889.50;;;19.96;43.23
19748;BME280;10032;51.386;12.516;2023-05-17T13:25:16;100884.13;;;20.09;42.73
19748;BME280;10032;51.386;12.516;2023-05-17T13:27:42;100880.00;;;20.30;42.71
19748;BME280;10032;51.386;12.516;2023-05-17T13:30:11;100884.38;;;20.13;41.78
19748;BME280;10032;51.386;12.516;2023-05-17T13:32:37;100886.78;;;19.67;41.94
19748;BME280;10032;51.386;12.516;2023-05-17T13:35:03;100882.47;;;19.61;41.62
19748;BME280;10032;51.386;12.516;2023-05-17T13:37:31;100886.91;;;19.57;41.46
19748;BME280;10032;51.386;12.516;2023-05-17T13:39:57;100876.78;;;19.19;40.52
19748;BME280;10032;51.386;12.516;2023-05-17T13:42:22;100883.19;;;19.43;41.61
19748;BME280;10032;51.386;12.516;2023-05-17T13:44:48;100887.19;;;19.56;41.48
19748;BME280;10032;51.386;12.516;2023-05-17T13:47:14;100886.22;;;19.42;41.10
19748;BME280;10032;51.386;12.516;2023-05-17T13:49:39;100896.47;;;19.36;41.42
19748;BME280;10032;51.386;12.516;2023-05-17T13:52:05;100884.34;;;19.66;41.88
19748;BME280;10032;51.386;12.516;2023-05-17T13:54:34;100882.81;;;19.78;41.64
19748;BME280;10032;51.386;12.516;2023-05-17T13:57:00;100894.09;;;19.53;40.56
19748;BME280;10032;51.386;12.516;2023-05-17T13:59:26;100886.25;;;19.65;41.01
19748;BME280;10032;51.386;12.516;2023-05-17T14:01:51;100891.03;;;19.83;41.12
19748;BME280;10032;51.386;12.516;2023-05-17T14:04:17;100903.00;;;19.69;41.00
19748;BME280;10032;51.386;12.516;2023-05-17T14:06:44;100898.97;;;19.61;40.29
19748;BME280;10032;51.386;12.516;2023-05-17T14:09:09;100896.25;;;19.56;39.94
19748;BME280;10032;51.386;12.516;2023-05-17T14:11:34;100898.03;;;19.71;40.15
19748;BME280;10032;51.386;12.516;2023-05-17T14:14:00;100893.94;;;19.68;40.05
19748;BME280;10032;51.386;12.516;2023-05-17T14:16:25;100888.56;;;19.82;40.46
19748;BME280;10032;51.386;12.516;2023-05-17T14:18:51;100889.38;;;19.82;41.25
19748;BME280;10032;51.386;12.516;2023-05-17T14:21:16;100891.59;;;20.27;41.14
19748;BME280;10032;51.386;12.516;2023-05-17T14:23:42;100894.63;;;20.26;40.94
19748;BME280;10032;51.386;12.516;2023-05-17T14:26:07;100895.41;;;20.31;40.92
19748;BME280;10032;51.386;12.516;2023-05-17T14:28:34;100905.41;;;19.99;40.23
19748;BME280;10032;51.386;12.516;2023-05-17T14:31:06;100898.16;;;19.84;39.83
19748;BME280;10032;51.386;12.516;2023-05-17T14:33:32;100899.38;;;19.73;40.23
19748;BME280;10032;51.386;12.516;2023-05-17T14:35:58;100897.25;;;19.89;40.15
19748;BME280;10032;51.386;12.516;2023-05-17T14:38:23;100897.69;;;20.01;39.98
19748;BME280;10032;51.386;12.516;2023-05-17T14:40:49;100908.31;;;19.84;39.84
19748;BME280;10032;51.386;12.516;2023-05-17T14:43:14;100906.88;;;19.91;40.66
19748;BME280;10032;51.386;12.516;2023-05-17T14:45:40;100915.66;;;19.70;39.81
19748;BME280;10032;51.386;12.516;2023-05-17T14:48:06;100907.19;;;19.90;40.47
19748;BME280;10032;51.386;12.516;2023-05-17T14:50:35;100911.34;;;20.11;39.85
19748;BME280;10032;51.386;12.516;2023-05-17T14:53:00;100912.13;;;19.88;39.81
19748;BME280;10032;51.386;12.516;2023-05-17T14:55:26;100918.78;;;20.10;40.19
19748;BME280;10032;51.386;12.516;2023-05-17T14:57:52;100920.13;;;20.36;39.87
19748;BME280;10032;51.386;12.516;2023-05-17T15:00:20;100916.44;;;20.22;40.16
19748;BME280;10032;51.386;12.516;2023-05-17T15:02:45;100921.44;;;20.20;39.70
19748;BME280;10032;51.386;12.516;2023-05-17T15:05:11;100918.41;;;19.70;39.41
19748;BME280;10032;51.386;12.516;2023-05-17T15:07:37;100923.28;;;19.73;39.99
19748;BME280;10032;51.386;12.516;2023-05-17T15:10:03;100916.06;;;20.05;40.16
19748;BME280;10032;51.386;12.516;2023-05-17T15:12:28;100915.97;;;20.15;40.22
19748;BME280;10032;51.386;12.516;2023-05-17T15:14:54;100925.53;;;19.71;39.87
19748;BME280;10032;51.386;12.516;2023-05-17T15:17:20;100921.78;;;19.85;40.48
19748;BME280;10032;51.386;12.516;2023-05-17T15:19:46;100918.78;;;20.10;40.11
19748;BME280;10032;51.386;12.516;2023-05-17T15:22:11;100920.47;;;20.30;40.13
19748;BME280;10032;51.386;12.516;2023-05-17T15:24:37;100915.00;;;20.01;40.18
19748;BME280;10032;51.386;12.516;2023-05-17T15:27:04;100917.69;;;19.83;39.31
19748;BME280;10032;51.386;12.516;2023-05-17T15:29:30;100919.69;;;19.77;39.44
19748;BME280;10032;51.386;12.516;2023-05-17T15:31:56;100917.97;;;19.81;39.75
19748;BME280;10032;51.386;12.516;2023-05-17T15:34:23;100917.06;;;19.91;40.35
19748;BME280;10032;51.386;12.516;2023-05-17T15:36:51;100918.59;;;20.02;40.13
19748;BME280;10032;51.386;12.516;2023-05-17T15:39:16;100919.16;;;19.75;40.05
19748;BME280;10032;51.386;12.516;2023-05-17T15:41:42;100915.47;;;19.61;40.48
19748;BME280;10032;51.386;12.516;2023-05-17T15:44:10;100922.69;;;19.52;39.63
19748;BME280;10032;51.386;12.516;2023-05-17T15:46:35;100917.38;;;19.32;40.09
19748;BME280;10032;51.386;12.516;2023-05-17T15:49:00;100922.22;;;19.45;40.26
19748;BME280;10032;51.386;12.516;2023-05-17T15:51:26;100917.91;;;19.63;40.43
19748;BME280;10032;51.386;12.516;2023-05-17T15:53:51;100908.00;;;19.62;39.89
19748;BME280;10032;51.386;12.516;2023-05-17T15:56:17;100904.69;;;19.36;39.86
19748;BME280;10032;51.386;12.516;2023-05-17T15:58:45;100909.16;;;19.27;40.00
19748;BME280;10032;51.386;12.516;2023-05-17T16:01:11;100905.22;;;19.38;40.21
19748;BME280;10032;51.386;12.516;2023-05-17T16:03:37;100901.25;;;19.49;40.28
19748;BME280;10032;51.386;12.516;2023-05-17T16:06:03;100902.44;;;19.43;39.72
19748;BME280;10032;51.386;12.516;2023-05-17T16:08:28;100905.81;;;19.35;39.94
19748;BME280;10032;51.386;12.516;2023-05-17T16:10:54;100909.16;;;19.27;40.09
19748;BME280;10032;51.386;12.516;2023-05-17T16:13:19;100898.31;;;19.07;40.20
19748;BME280;10032;51.386;12.516;2023-05-17T16:15:45;100899.09;;;19.13;40.63
19748;BME280;10032;51.386;12.516;2023-05-17T16:18:11;100907.28;;;19.23;40.70
19748;BME280;10032;51.386;12.516;2023-05-17T16:20:41;100904.56;;;19.18;40.60
19748;BME280;10032;51.386;12.516;2023-05-17T16:23:07;100912.53;;;19.19;40.72
19748;BME280;10032;51.386;12.516;2023-05-17T16:25:32;100904.88;;;19.11;40.59
19748;BME280;10032;51.386;12.516;2023-05-17T16:27:59;100904.34;;;19.09;40.55
19748;BME280;10032;51.386;12.516;2023-05-17T16:30:24;100909.31;;;19.07;40.41
19748;BME280;10032;51.386;12.516;2023-05-17T16:32:50;100910.22;;;18.98;40.65
19748;BME280;10032;51.386;12.516;2023-05-17T16:35:15;100905.69;;;18.78;40.39
19748;BME280;10032;51.386;12.516;2023-05-17T16:37:41;100916.69;;;18.73;40.74
19748;BME280;10032;51.386;12.516;2023-05-17T16:40:08;100916.19;;;18.66;40.56
19748;BME280;10032;51.386;12.516;2023-05-17T16:42:34;100920.06;;;18.60;40.75
19748;BME280;10032;51.386;12.516;2023-05-17T16:45:00;100925.00;;;18.63;40.82
19748;BME280;10032;51.386;12.516;2023-05-17T16:47:25;100923.06;;;18.69;40.77
19748;BME280;10032;51.386;12.516;2023-05-17T16:49:52;100928.22;;;18.75;40.68
19748;BME280;10032;51.386;12.516;2023-05-17T16:52:18;100927.47;;;18.65;40.41
19748;BME280;10032;51.386;12.516;2023-05-17T16:54:43;100925.34;;;18.47;40.48
19748;BME280;10032;51.386;12.516;2023-05-17T16:57:09;100933.88;;;18.45;40.99
19748;BME280;10032;51.386;12.516;2023-05-17T16:59:34;100936.09;;;18.38;41.29
19748;BME280;10032;51.386;12.516;2023-05-17T17:02:03;100928.69;;;18.39;41.58
19748;BME280;10032;51.386;12.516;2023-05-17T17:04:29;100929.00;;;18.32;41.58
19748;BME280;10032;51.386;12.516;2023-05-17T17:06:56;100932.56;;;18.28;41.44
19748;BME280;10032;51.386;12.516;2023-05-17T17:09:22;100932.84;;;18.26;41.86
19748;BME280;10032;51.386;12.516;2023-05-17T17:11:47;100931.75;;;18.22;41.85
19748;BME280;10032;51.386;12.516;2023-05-17T17:14:13;100936.09;;;18.28;41.76